createdAt,value
2022-12-15T00:02:36.170Z,120.35
2022-12-15T00:05:22.706Z,120.47
2022-12-15T00:08:08.628Z,122.75
2022-12-15T00:10:54.732Z,127.95
2022-12-15T00:13:40.776Z,132.23
2022-12-15T00:16:26.963Z,124.05
2022-12-15T00:19:13.145Z,126.15
2022-12-15T00:21:58.918Z,132.35
2022-12-15T00:24:44.732Z,123.50
2022-12-15T00:27:35.645Z,120.75
2022-12-15T00:30:24.013Z,130.80
2022-12-15T00:33:09.980Z,130.55
2022-12-15T00:35:55.598Z,137.38
2022-12-15T00:38:42.921Z,125.90
2022-12-15T00:41:15.120Z,132.43
2022-12-15T00:43:42.394Z,121.65
2022-12-15T00:46:28.362Z,127.80
2022-12-15T00:48:55.676Z,132.23
2022-12-15T00:51:41.733Z,125.60
2022-12-15T00:54:27.812Z,125.68
2022-12-15T00:57:13.886Z,120.10
2022-12-15T00:59:59.830Z,125.07
2022-12-15T01:02:46.152Z,132.75
2022-12-15T01:05:32.526Z,134.52
2022-12-15T01:08:19.132Z,131.75
2022-12-15T01:11:05.345Z,135.07
2022-12-15T01:13:51.451Z,138.95
2022-12-15T01:16:37.581Z,134.57
2022-12-15T01:19:23.427Z,142.07
2022-12-15T01:21:50.656Z,136.45
2022-12-15T01:24:17.713Z,127.45
2022-12-15T01:26:44.917Z,124.95
2022-12-15T01:29:12.280Z,134.77
2022-12-15T01:31:39.481Z,123.47
2022-12-15T01:34:06.802Z,129.25
2022-12-15T01:36:33.926Z,131.68
2022-12-15T01:39:01.693Z,132.20
2022-12-15T01:41:28.855Z,119.40
2022-12-15T01:44:15.006Z,129.00
2022-12-15T01:46:42.273Z,124.57
2022-12-15T01:49:16.906Z,123.22
2022-12-15T01:51:48.279Z,115.13
2022-12-15T01:54:24.892Z,119.78
2022-12-15T01:56:55.896Z,115.55
2022-12-15T01:59:28.883Z,130.73
2022-12-15T02:01:56.165Z,120.55
2022-12-15T02:04:23.488Z,125.88
2022-12-15T02:06:50.734Z,121.22
2022-12-15T02:09:17.969Z,133.73
2022-12-15T02:12:05.988Z,108.45
2022-12-15T02:15:11.230Z,116.45
2022-12-15T02:18:06.044Z,111.80
2022-12-15T02:21:17.962Z,113.13
2022-12-15T02:23:53.793Z,114.93
2022-12-15T02:26:45.261Z,114.85
2022-12-15T02:29:30.937Z,120.15
2022-12-15T02:32:14.669Z,110.45
2022-12-15T02:35:08.982Z,95.23
2022-12-15T02:37:38.268Z,91.35
2022-12-15T02:40:09.068Z,98.45
2022-12-15T02:42:54.091Z,102.70
2022-12-15T02:45:49.996Z,96.05
2022-12-15T02:48:41.706Z,89.47
2022-12-15T02:51:32.670Z,86.63
2022-12-15T02:54:37.418Z,93.75
2022-12-15T02:57:26.060Z,93.57
2022-12-15T03:00:07.442Z,90.45
2022-12-15T03:02:34.861Z,94.38
2022-12-15T03:05:02.011Z,91.78
2022-12-15T03:07:29.226Z,80.80
2022-12-15T03:09:57.446Z,90.90
2022-12-15T03:12:24.621Z,80.18
2022-12-15T03:14:51.773Z,84.10
2022-12-15T03:17:18.932Z,90.03
2022-12-15T03:19:46.056Z,90.80
2022-12-15T03:22:16.799Z,94.72
2022-12-15T03:24:43.880Z,92.45
2022-12-15T03:27:11.078Z,90.88
2022-12-15T03:29:38.374Z,88.78
2022-12-15T03:32:06.102Z,103.10
2022-12-15T03:34:33.377Z,95.50
2022-12-15T03:37:01.085Z,95.95
2022-12-15T03:39:28.304Z,91.25
2022-12-15T03:41:55.422Z,82.78
2022-12-15T03:44:22.663Z,89.75
2022-12-15T03:46:49.856Z,84.35
2022-12-15T03:49:16.961Z,83.03
2022-12-15T03:51:45.051Z,72.20
2022-12-15T03:54:13.586Z,87.63
2022-12-15T03:56:41.065Z,88.25
2022-12-15T03:59:08.277Z,81.38
2022-12-15T04:01:36.442Z,86.65
2022-12-15T04:04:04.453Z,89.60
2022-12-15T04:06:31.666Z,82.05
2022-12-15T04:08:58.817Z,80.25
2022-12-15T04:11:25.944Z,90.40
2022-12-15T04:13:53.120Z,79.88
2022-12-15T04:16:20.650Z,84.85
2022-12-15T04:19:08.237Z,83.72
2022-12-15T04:21:35.422Z,89.68
2022-12-15T04:24:20.960Z,76.78
2022-12-15T04:27:07.102Z,81.28
2022-12-15T04:29:53.034Z,87.60
2022-12-15T04:32:38.974Z,83.63
2022-12-15T04:35:24.884Z,86.40
2022-12-15T04:38:10.788Z,77.43
2022-12-15T04:40:56.827Z,87.30
2022-12-15T04:43:42.740Z,108.95
2022-12-15T04:46:28.780Z,145.75
2022-12-15T04:49:14.891Z,132.73
2022-12-15T04:52:00.940Z,127.40
2022-12-15T04:54:46.995Z,98.75
2022-12-15T04:57:32.894Z,97.63
2022-12-15T05:00:18.803Z,98.57
2022-12-15T05:03:06.341Z,88.53
2022-12-15T05:05:52.442Z,92.75
2022-12-15T05:08:38.414Z,94.90
2022-12-15T05:11:24.508Z,84.07
2022-12-15T05:14:10.444Z,87.82
2022-12-15T05:16:56.545Z,87.97
2022-12-15T05:19:42.675Z,94.20
2022-12-15T05:22:30.689Z,90.03
2022-12-15T05:25:16.643Z,86.95
2022-12-15T05:28:02.536Z,93.05
2022-12-15T05:30:48.490Z,84.07
2022-12-15T05:33:15.669Z,90.53
2022-12-15T05:35:42.919Z,80.85
2022-12-15T05:38:10.081Z,80.22
2022-12-15T05:40:37.379Z,82.97
2022-12-15T05:43:04.495Z,85.47
2022-12-15T05:45:31.687Z,82.15
2022-12-15T05:47:58.831Z,88.13
2022-12-15T05:50:26.052Z,84.38
2022-12-15T05:52:53.338Z,76.30
2022-12-15T05:55:20.470Z,82.28
2022-12-15T05:57:54.569Z,84.22
2022-12-15T06:00:21.926Z,77.68
2022-12-15T06:02:49.858Z,81.15
2022-12-15T06:05:18.208Z,78.68
2022-12-15T06:07:45.323Z,82.43
2022-12-15T06:10:12.513Z,89.72
2022-12-15T06:12:42.286Z,87.30
2022-12-15T06:15:10.042Z,74.15
2022-12-15T06:17:37.212Z,79.93
2022-12-15T06:20:12.790Z,86.10
2022-12-15T06:22:39.996Z,79.95
2022-12-15T06:25:07.808Z,80.05
2022-12-15T06:27:37.229Z,85.13
2022-12-15T06:30:05.274Z,75.78
2022-12-15T06:32:36.251Z,82.43
2022-12-15T06:35:03.509Z,80.35
2022-12-15T06:37:30.653Z,76.53
2022-12-15T06:39:57.905Z,83.20
2022-12-15T06:42:25.095Z,82.75
2022-12-15T06:44:52.228Z,77.43
2022-12-15T06:47:19.416Z,81.05
2022-12-15T06:49:46.552Z,77.50
2022-12-15T06:52:13.859Z,86.10
2022-12-15T06:54:41.120Z,89.07
2022-12-15T06:57:08.210Z,84.25
2022-12-15T06:59:35.416Z,78.38
2022-12-15T07:02:02.744Z,81.75
2022-12-15T07:04:32.291Z,88.28
2022-12-15T07:06:59.622Z,85.18
2022-12-15T07:09:27.605Z,84.25
2022-12-15T07:11:54.849Z,76.05
2022-12-15T07:14:23.133Z,87.97
2022-12-15T07:16:50.598Z,75.95
2022-12-15T07:19:17.841Z,88.32
2022-12-15T07:21:45.196Z,81.53
2022-12-15T07:24:12.987Z,85.15
2022-12-15T07:26:41.014Z,85.70
2022-12-15T07:29:08.122Z,83.15
2022-12-15T07:31:35.334Z,78.60
2022-12-15T07:34:02.541Z,84.65
2022-12-15T07:36:29.691Z,87.32
2022-12-15T07:39:01.058Z,83.80
2022-12-15T07:41:28.609Z,80.43
2022-12-15T07:43:56.103Z,83.88
2022-12-15T07:46:24.175Z,89.07
2022-12-15T07:48:51.413Z,80.43
2022-12-15T07:51:20.397Z,85.32
2022-12-15T07:53:50.084Z,89.95
2022-12-15T07:56:20.649Z,78.43
2022-12-15T07:58:47.894Z,83.63
2022-12-15T08:01:15.439Z,89.97
2022-12-15T08:03:42.810Z,80.32
2022-12-15T08:06:13.119Z,81.10
2022-12-15T08:08:41.448Z,86.93
2022-12-15T08:11:10.491Z,83.55
2022-12-15T08:16:25.646Z,82.88
2022-12-15T08:18:55.305Z,70.55
2022-12-15T08:21:22.539Z,87.45
2022-12-15T08:23:49.783Z,89.72
2022-12-15T08:26:17.863Z,79.38
2022-12-15T08:28:45.808Z,90.40
2022-12-15T08:31:19.385Z,84.82
2022-12-15T08:33:46.907Z,87.18
2022-12-15T08:36:15.505Z,93.93
2022-12-15T08:38:43.438Z,88.30
2022-12-15T08:41:41.223Z,89.07
2022-12-15T08:44:08.372Z,102.45
2022-12-15T08:46:35.590Z,90.72
2022-12-15T08:49:03.188Z,87.20
2022-12-15T08:51:31.892Z,85.00
2022-12-15T08:53:59.800Z,85.93
2022-12-15T08:56:27.668Z,88.35
2022-12-15T08:58:59.993Z,92.97
2022-12-15T09:01:28.557Z,95.63
2022-12-15T09:03:56.387Z,88.55
2022-12-15T09:06:29.717Z,83.32
2022-12-15T09:09:02.052Z,85.40
2022-12-15T09:11:29.833Z,93.78
2022-12-15T09:13:57.391Z,87.97
2022-12-15T09:16:24.770Z,81.82
2022-12-15T09:18:54.931Z,78.82
2022-12-15T09:21:23.259Z,82.22
2022-12-15T09:23:52.050Z,88.00
2022-12-15T09:26:20.924Z,77.45
2022-12-15T09:28:50.659Z,77.15
2022-12-15T09:31:23.010Z,79.78
2022-12-15T09:33:52.512Z,76.50
2022-12-15T09:36:20.729Z,81.85
2022-12-15T09:38:47.898Z,84.32
2022-12-15T09:41:15.024Z,74.65
2022-12-15T09:44:06.462Z,71.63
2022-12-15T09:47:28.472Z,80.25
2022-12-15T09:50:00.521Z,81.93
2022-12-15T09:52:50.334Z,88.15
2022-12-15T09:55:32.578Z,87.63
2022-12-15T09:58:29.655Z,83.97
2022-12-15T10:01:27.941Z,93.88
2022-12-15T10:04:07.059Z,83.72
2022-12-15T10:06:42.337Z,83.43
2022-12-15T10:09:31.140Z,95.85
2022-12-15T10:12:13.181Z,100.32
2022-12-15T10:14:49.811Z,88.65
2022-12-15T10:17:32.572Z,94.22
2022-12-15T10:20:24.445Z,95.28
2022-12-15T10:22:51.642Z,89.47
2022-12-15T10:25:30.034Z,80.57
2022-12-15T10:28:16.167Z,87.70
2022-12-15T10:31:41.221Z,86.28
2022-12-15T10:34:32.434Z,96.10
2022-12-15T10:37:20.762Z,92.03
2022-12-15T10:39:51.734Z,89.90
2022-12-15T10:42:24.594Z,99.22
2022-12-15T10:44:57.110Z,94.30
2022-12-15T10:47:26.515Z,95.35
2022-12-15T10:49:54.556Z,91.57
2022-12-15T10:52:27.351Z,94.88
2022-12-15T10:54:57.275Z,99.13
2022-12-15T10:57:33.672Z,91.05
2022-12-15T11:00:31.659Z,84.30
2022-12-15T11:02:59.250Z,104.75
2022-12-15T11:05:26.892Z,95.40
2022-12-15T11:08:16.558Z,93.85
2022-12-15T11:11:18.352Z,93.07
2022-12-15T11:14:14.073Z,92.30
2022-12-15T11:16:58.409Z,95.82
2022-12-15T11:19:42.786Z,87.20
2022-12-15T11:22:45.505Z,90.85
2022-12-15T11:25:40.177Z,91.68
2022-12-15T11:28:14.749Z,101.68
2022-12-15T11:30:50.607Z,91.00
2022-12-15T11:33:17.815Z,100.22
2022-12-15T11:35:57.017Z,103.68
2022-12-15T11:38:26.551Z,104.25
2022-12-15T11:40:54.487Z,105.20
2022-12-15T11:43:36.748Z,106.32
2022-12-15T11:46:24.303Z,119.38
2022-12-15T11:49:26.079Z,117.40
2022-12-15T11:52:01.472Z,104.55
2022-12-15T11:54:56.090Z,113.15
2022-12-15T11:57:31.828Z,92.22
2022-12-15T12:00:21.637Z,98.53
2022-12-15T12:03:02.333Z,100.07
2022-12-15T12:06:03.079Z,103.85
2022-12-15T12:09:14.908Z,110.63
2022-12-15T12:11:53.584Z,113.32
2022-12-15T12:14:41.567Z,111.57
2022-12-15T12:17:13.701Z,128.80
2022-12-15T12:19:50.954Z,130.65
2022-12-15T12:22:26.017Z,120.15
2022-12-15T12:25:20.919Z,128.10
2022-12-15T12:28:21.997Z,122.28
2022-12-15T12:30:50.676Z,124.15
2022-12-15T12:33:38.306Z,123.10
2022-12-15T12:36:13.318Z,110.88
2022-12-15T12:38:56.494Z,117.18
2022-12-15T12:42:37.502Z,126.68
2022-12-15T12:45:05.278Z,126.03
2022-12-15T12:47:36.120Z,129.73
2022-12-15T12:50:27.575Z,158.13
2022-12-15T12:52:57.756Z,128.73
2022-12-15T12:55:35.875Z,122.57
2022-12-15T12:58:03.275Z,135.32
2022-12-15T13:00:35.707Z,130.75
2022-12-15T13:03:20.490Z,112.68
2022-12-15T13:08:54.529Z,116.93
2022-12-15T13:11:53.715Z,109.93
2022-12-15T13:14:40.436Z,121.38
2022-12-15T13:17:30.997Z,117.88
2022-12-15T13:20:04.090Z,129.43
2022-12-15T13:22:36.282Z,122.32
2022-12-15T13:25:24.372Z,131.02
2022-12-15T13:27:54.794Z,110.38
2022-12-15T13:30:22.010Z,107.63
2022-12-15T13:32:53.410Z,124.70
2022-12-15T13:35:34.569Z,118.20
2022-12-15T13:38:08.436Z,126.50
2022-12-15T13:40:35.684Z,132.23
2022-12-15T13:43:07.503Z,121.55
2022-12-15T13:45:37.831Z,127.45
2022-12-15T13:48:38.094Z,116.65
2022-12-15T13:51:38.340Z,119.72
2022-12-15T13:54:08.164Z,120.13
2022-12-15T13:57:04.108Z,125.97
2022-12-15T13:59:49.412Z,113.45
2022-12-15T14:02:36.482Z,118.35
2022-12-15T14:05:17.566Z,104.45
2022-12-15T14:07:56.607Z,115.43
2022-12-15T14:10:36.899Z,106.70
2022-12-15T14:13:29.717Z,116.30
2022-12-15T14:16:00.959Z,117.80
2022-12-15T14:18:39.087Z,107.45
2022-12-15T14:21:30.419Z,116.55
2022-12-15T14:24:37.074Z,112.05
2022-12-15T14:26:48.882Z,112.18
2022-12-15T14:29:17.836Z,115.22
2022-12-15T14:31:51.054Z,116.70
2022-12-15T14:34:25.876Z,96.10
2022-12-15T14:36:55.037Z,131.43
2022-12-15T14:39:35.213Z,126.88
2022-12-15T14:42:02.867Z,119.07
2022-12-15T14:44:43.863Z,160.50
2022-12-15T14:47:28.898Z,159.88
2022-12-15T14:49:57.704Z,148.20
2022-12-15T14:52:39.830Z,155.65
2022-12-15T14:55:35.954Z,150.93
2022-12-15T14:58:30.642Z,145.45
2022-12-15T15:00:58.682Z,155.10
2022-12-15T15:03:39.503Z,170.10
2022-12-15T15:06:12.815Z,155.25
2022-12-15T15:08:50.977Z,156.07
2022-12-15T15:11:39.805Z,141.35
2022-12-15T15:14:30.470Z,147.43
2022-12-15T15:17:13.228Z,154.38
2022-12-15T15:19:59.239Z,154.57
2022-12-15T15:22:40.171Z,131.27
2022-12-15T15:25:39.323Z,153.52
2022-12-15T15:28:27.031Z,158.15
2022-12-15T15:31:05.587Z,134.52
2022-12-15T15:33:33.017Z,157.57
2022-12-15T15:36:01.987Z,139.48
2022-12-15T15:38:31.256Z,173.93
2022-12-15T15:41:01.015Z,155.30
2022-12-15T15:43:30.452Z,133.02
2022-12-15T15:46:06.961Z,144.77
2022-12-15T15:48:50.823Z,140.43
2022-12-15T15:51:18.634Z,127.17
2022-12-15T15:53:45.879Z,142.07
2022-12-15T15:56:15.182Z,131.00
2022-12-15T15:58:45.409Z,139.73
2022-12-15T16:01:13.466Z,124.55
2022-12-15T16:03:41.467Z,135.68
2022-12-15T16:06:19.912Z,122.70
2022-12-15T16:08:51.471Z,125.60
2022-12-15T16:11:18.766Z,127.85
2022-12-15T16:13:46.040Z,116.63
2022-12-15T16:16:18.904Z,109.20
2022-12-15T16:18:46.219Z,115.43
2022-12-15T16:21:14.256Z,113.70
2022-12-15T16:23:48.950Z,126.68
2022-12-15T16:26:19.735Z,113.00
2022-12-15T16:28:46.988Z,111.88
2022-12-15T16:31:41.212Z,122.35
2022-12-15T16:34:09.145Z,120.07
2022-12-15T16:36:36.403Z,136.05
2022-12-15T16:39:04.218Z,117.85
2022-12-15T16:41:31.449Z,127.22
2022-12-15T16:43:58.731Z,102.53
2022-12-15T16:46:26.090Z,107.32
2022-12-15T16:48:53.707Z,134.68
2022-12-15T16:51:39.079Z,132.77
2022-12-15T16:54:06.724Z,121.18
2022-12-15T16:56:34.116Z,116.35
2022-12-15T16:59:32.589Z,132.77
2022-12-15T17:01:49.065Z,133.85
2022-12-15T17:04:16.681Z,132.70
2022-12-15T17:06:44.019Z,121.22
2022-12-15T17:09:21.275Z,130.07
2022-12-15T17:11:48.587Z,123.40
2022-12-15T17:14:16.225Z,124.45
2022-12-15T17:16:43.608Z,123.88
2022-12-15T17:19:13.844Z,125.55
2022-12-15T17:21:49.087Z,134.18
2022-12-15T17:24:18.015Z,126.68
2022-12-15T17:26:45.475Z,132.65
2022-12-15T17:29:20.490Z,134.15
2022-12-15T17:31:47.787Z,136.95
2022-12-15T17:34:34.844Z,124.55
2022-12-15T17:37:04.395Z,132.75
2022-12-15T17:39:33.547Z,129.25
2022-12-15T17:42:02.331Z,142.25
2022-12-15T17:44:36.227Z,119.55
2022-12-15T17:47:06.693Z,139.45
2022-12-15T17:49:37.617Z,140.38
2022-12-15T17:52:26.167Z,124.97
2022-12-15T17:54:53.495Z,157.88
2022-12-15T17:57:20.904Z,139.40
2022-12-15T17:59:48.310Z,141.48
2022-12-15T18:02:15.957Z,131.02
2022-12-15T18:04:43.579Z,150.63
2022-12-15T18:07:21.590Z,130.85
2022-12-15T18:09:52.479Z,159.85
2022-12-15T18:12:26.938Z,134.68
2022-12-15T18:14:54.605Z,161.93
2022-12-15T18:17:22.099Z,149.80
2022-12-15T18:19:49.421Z,154.38
2022-12-15T18:22:24.244Z,157.10
2022-12-15T18:24:52.602Z,135.70
2022-12-15T18:27:25.994Z,147.65
2022-12-15T18:29:53.454Z,129.63
2022-12-15T18:32:26.387Z,136.70
2022-12-15T18:34:54.186Z,130.85
2022-12-15T18:37:23.227Z,142.27
2022-12-15T18:39:50.840Z,124.15
2022-12-15T18:42:19.873Z,121.78
2022-12-15T18:44:52.006Z,144.70
2022-12-15T18:47:24.949Z,140.18
2022-12-15T18:49:52.349Z,152.63
2022-12-15T18:52:24.126Z,141.90
2022-12-15T18:54:53.194Z,124.20
2022-12-15T18:57:38.359Z,131.63
2022-12-15T19:00:14.782Z,145.63
2022-12-15T19:02:42.591Z,132.27
2022-12-15T19:05:27.267Z,103.05
2022-12-15T19:08:20.180Z,133.30
2022-12-15T19:10:59.895Z,125.85
2022-12-15T19:13:33.204Z,124.53
2022-12-15T19:16:01.444Z,120.17
2022-12-15T19:18:47.630Z,147.70
2022-12-15T19:21:46.060Z,139.48
2022-12-15T19:24:49.363Z,132.30
2022-12-15T19:27:20.175Z,127.55
2022-12-15T19:29:48.011Z,143.32
2022-12-15T19:32:15.289Z,128.73
2022-12-15T19:34:43.317Z,131.48
2022-12-15T19:37:24.536Z,127.30
2022-12-15T19:39:52.001Z,124.05
2022-12-15T19:42:35.879Z,122.28
2022-12-15T19:45:20.726Z,129.67
2022-12-15T19:47:48.110Z,121.85
2022-12-15T19:50:24.101Z,137.60
2022-12-15T19:52:57.740Z,118.55
2022-12-15T19:55:33.760Z,134.25
2022-12-15T19:58:27.110Z,129.48
2022-12-15T20:01:00.626Z,139.65
2022-12-15T20:03:29.490Z,162.15
2022-12-15T20:05:57.485Z,120.50
2022-12-15T20:08:29.521Z,140.27
2022-12-15T20:10:56.812Z,146.60
2022-12-15T20:13:26.361Z,164.60
2022-12-15T20:15:54.395Z,139.70
2022-12-15T20:18:21.575Z,157.05
2022-12-15T20:20:49.003Z,171.15
2022-12-15T20:23:23.730Z,150.05
2022-12-15T20:25:50.995Z,138.50
2022-12-15T20:28:24.427Z,150.02
2022-12-15T20:30:51.903Z,134.00
2022-12-15T20:33:19.328Z,160.57
2022-12-15T20:35:48.053Z,173.27
2022-12-15T20:38:28.670Z,161.55
2022-12-15T20:40:56.170Z,158.55
2022-12-15T20:43:24.668Z,166.98
2022-12-15T20:45:59.621Z,149.00
2022-12-15T20:48:26.769Z,168.32
2022-12-15T20:50:53.986Z,160.38
2022-12-15T20:53:23.846Z,153.15
2022-12-15T20:55:52.096Z,166.45
2022-12-15T20:58:20.058Z,163.10
2022-12-15T21:00:48.501Z,174.57
2022-12-15T21:03:28.173Z,195.95
2022-12-15T21:05:57.239Z,166.98
2022-12-15T21:08:27.411Z,153.07
2022-12-15T21:10:56.420Z,167.30
2022-12-15T21:13:31.219Z,176.35
2022-12-15T21:15:59.389Z,155.90
2022-12-15T21:19:10.754Z,154.98
2022-12-15T21:21:20.944Z,150.85
2022-12-15T21:26:19.621Z,138.07
2022-12-15T21:28:51.197Z,169.63
2022-12-15T21:31:19.021Z,152.80
2022-12-15T21:33:46.711Z,156.30
2022-12-15T21:36:15.178Z,162.27
2022-12-15T21:38:42.630Z,174.40
2022-12-15T21:41:17.001Z,156.88
2022-12-15T21:43:44.512Z,147.23
2022-12-15T21:46:28.526Z,168.93
2022-12-15T21:49:14.452Z,169.52
2022-12-15T21:51:49.584Z,150.43
2022-12-15T21:54:31.201Z,168.27
2022-12-15T21:57:00.283Z,166.32
2022-12-15T21:59:30.636Z,178.80
2022-12-15T22:01:59.671Z,181.15
2022-12-15T22:04:32.484Z,160.57
2022-12-15T22:06:59.885Z,169.18
2022-12-15T22:09:27.098Z,159.70
2022-12-15T22:11:54.775Z,156.82
2022-12-15T22:14:33.040Z,166.38
2022-12-15T22:17:17.292Z,151.55
2022-12-15T22:19:44.622Z,142.30
2022-12-15T22:22:13.825Z,148.00
2022-12-15T22:24:41.058Z,159.88
2022-12-15T22:27:21.850Z,145.32
2022-12-15T22:29:49.293Z,150.23
2022-12-15T22:32:16.919Z,141.73
2022-12-15T22:34:44.186Z,152.02
2022-12-15T22:37:11.394Z,151.52
2022-12-15T22:39:38.531Z,163.18
2022-12-15T22:42:05.783Z,150.30
2022-12-15T22:44:35.946Z,154.80
2022-12-15T22:47:03.369Z,151.15
2022-12-15T22:49:38.221Z,150.13
2022-12-15T22:52:21.024Z,142.85
2022-12-15T22:54:48.421Z,156.77
2022-12-15T22:57:23.870Z,167.32
2022-12-15T23:00:05.666Z,169.77
2022-12-15T23:02:36.492Z,159.18
2022-12-15T23:05:04.937Z,155.07
2022-12-15T23:07:32.997Z,170.25
2022-12-15T23:10:19.031Z,145.38
2022-12-15T23:12:46.268Z,163.68
2022-12-15T23:15:31.939Z,148.35
2022-12-15T23:18:00.134Z,150.20
2022-12-15T23:20:27.252Z,154.15
2022-12-15T23:22:54.874Z,152.88
2022-12-15T23:25:22.060Z,156.88
2022-12-15T23:27:49.275Z,150.50
2022-12-15T23:30:16.593Z,152.27
2022-12-15T23:32:43.879Z,165.00
2022-12-15T23:35:10.989Z,155.38
2022-12-15T23:37:38.207Z,167.15
2022-12-15T23:40:06.644Z,153.32
2022-12-15T23:42:35.265Z,179.32
2022-12-15T23:45:02.697Z,166.32
2022-12-15T23:47:29.977Z,164.88
2022-12-15T23:49:57.485Z,156.00
2022-12-15T23:52:26.936Z,154.18
2022-12-15T23:54:54.197Z,146.23
2022-12-15T23:57:25.451Z,153.02
2022-12-15T23:59:55.500Z,141.02
